Rock City, Illinois
Current Conditions -  °F | °C
As of 4:15 PM on Thursday 27 Nov 2014 (Local Time) from KFEP Reporting Station
Clear Clear  
Wind Chill:   Ceiling: Unl
Heat Index: 18°   Visibility: 10mi
Dew Point:   Wind: 7mph
Humidity: 66%   Direction: 290°WNW
Pressure: 30.41"   Gusts: NA
Location:  42.41°N, 89.47°W
Report Text: KFEP 272215Z AUTO 29006KT 10SM CLR M08/M13 A3041 RMK AO2 T10801134
Loading
Personal Weather Stations






























Interactive Weather Map New forecast layout! Learn more

10-Day Weather Forecast

Advertisements
Track Severe Weather on mobile